Time;durP1;ratioP1;P1;durP2;ratioP2;P2;SDS_P1;SDS_P2;PMS_P1;PMS_P2;Temp;Humidity;BMP_temperature;BMP_pressure;BME280_temperature;BME280_humidity;BME280_pressure;Samples;Min_cycle;Max_cycle;Signal;HPM_P1;HPM_P2
2022/09/20 00:02:08;;;;;;;1.60;1.05;;;;;;;10.25;83.09;97767.50;10460673;28;20165;-54
2022/09/20 00:07:07;;;;;;;1.45;1.10;;;;;;;10.29;81.93;97763.19;10461292;28;20071;-55
2022/09/20 00:12:07;;;;;;;1.63;1.10;;;;;;;10.24;81.78;97738.97;10460708;28;20024;-55
2022/09/20 00:17:05;;;;;;;1.30;1.00;;;;;;;10.27;81.25;97744.16;10460617;28;20060;-55
2022/09/20 00:22:04;;;;;;;1.60;1.20;;;;;;;10.22;81.71;97748.50;10460313;28;20036;-55
2022/09/20 00:27:03;;;;;;;1.88;1.45;;;;;;;10.17;81.42;97749.34;10460278;28;20059;-55
2022/09/20 00:32:02;;;;;;;1.85;1.30;;;;;;;10.09;81.41;97751.06;10460057;28;20036;-55
2022/09/20 00:37:01;;;;;;;1.98;1.60;;;;;;;9.98;82.34;97750.22;10460028;28;20078;-55
2022/09/20 00:42:00;;;;;;;1.55;1.45;;;;;;;9.91;82.59;97757.09;10459810;28;20024;-55
2022/09/20 00:47:01;;;;;;;2.67;1.48;;;;;;;9.79;83.52;97746.69;10456676;28;20116;-55
2022/09/20 00:52:01;;;;;;;2.60;2.40;;;;;;;9.70;83.50;97757.03;10455482;28;20083;-55
2022/09/20 00:57:00;;;;;;;2.13;1.50;;;;;;;9.54;84.06;97732.84;10455687;28;20090;-55
2022/09/20 01:02:04;;;;;;;2.65;1.50;;;;;;;9.54;84.08;97745.78;10455410;28;20075;-55
2022/09/20 01:07:06;;;;;;;4.50;1.60;;;;;;;9.46;84.58;97744.88;10455992;28;20079;-55
2022/09/20 01:12:11;;;;;;;1.67;1.40;;;;;;;9.21;85.02;97715.41;10455471;28;20090;-55
2022/09/20 01:17:11;;;;;;;1.90;1.70;;;;;;;9.20;86.48;97735.25;10455352;28;20072;-54
2022/09/20 01:22:57;;;;;;;1.90;1.70;;;;;;;9.14;86.69;97748.19;10455615;28;20063;-55
2022/09/20 01:27:56;;;;;;;3.88;1.60;;;;;;;9.07;86.75;97751.63;10404804;28;20071;-54
2022/09/20 01:33:16;;;;;;;3.13;1.77;;;;;;;9.02;86.84;97750.69;10463004;28;20075;-55
2022/09/20 01:38:33;;;;;;;3.42;1.90;;;;;;;8.90;87.02;97743.75;10463720;28;20631;-55
2022/09/20 01:43:54;;;;;;;3.50;1.77;;;;;;;8.80;86.96;97747.16;10463631;28;20056;-54
2022/09/20 01:48:58;;;;;;;5.40;2.50;;;;;;;8.62;86.98;97747.88;10462008;28;20072;-55
2022/09/20 01:54:20;;;;;;;5.30;2.17;;;;;;;8.51;86.92;97753.88;10462544;28;20082;-54
2022/09/20 01:59:40;;;;;;;5.65;2.58;;;;;;;8.39;87.12;97746.03;10462522;28;20076;-55
2022/09/20 02:04:50;;;;;;;5.28;2.60;;;;;;;8.26;87.77;97737.28;10462470;28;20064;-54
2022/09/20 02:10:16;;;;;;;3.63;2.60;;;;;;;8.16;87.65;97734.63;10462108;28;20056;-54
2022/09/20 02:15:46;;;;;;;4.43;2.55;;;;;;;8.05;87.86;97735.41;10462579;28;20511;-54
2022/09/20 02:21:17;;;;;;;4.60;3.00;;;;;;;8.03;88.51;97728.47;10461517;28;20197;-54
2022/09/20 02:26:47;;;;;;;4.90;3.03;;;;;;;7.99;88.90;97737.94;10433517;28;20067;-54
2022/09/20 02:32:15;;;;;;;7.45;3.17;;;;;;;7.95;88.69;97741.34;10423070;28;20075;-55
2022/09/20 02:37:20;;;;;;;6.20;3.03;;;;;;;7.88;88.53;97736.97;10460844;28;20063;-55
2022/09/20 02:42:46;;;;;;;7.45;2.92;;;;;;;7.79;89.35;97737.75;10460066;28;20090;-54
2022/09/20 02:47:46;;;;;;;8.48;2.72;;;;;;;7.69;89.79;97742.81;10463282;28;20082;-55
2022/09/20 02:52:54;;;;;;;4.10;2.42;;;;;;;7.63;89.48;97744.47;10463620;28;20484;-55
2022/09/20 02:58:15;;;;;;;7.10;3.15;;;;;;;7.48;90.72;97744.31;10464052;28;20083;-54
2022/09/20 03:03:26;;;;;;;4.53;2.60;;;;;;;7.34;91.48;97751.00;10463436;28;20452;-53
2022/09/20 03:08:34;;;;;;;3.65;2.42;;;;;;;7.16;92.25;97762.84;10463130;28;20067;-54
2022/09/20 03:13:54;;;;;;;3.83;2.55;;;;;;;6.97;92.48;97761.72;10463147;28;20474;-54
2022/09/20 03:19:32;;;;;;;9.77;6.18;;;;;;;6.94;91.99;97758.25;10462994;28;20040;-54
2022/09/20 03:24:39;;;;;;;6.50;4.45;;;;;;;6.92;91.46;97767.69;10462365;28;20067;-54
2022/09/20 03:29:51;;;;;;;4.65;2.90;;;;;;;6.87;92.16;97766.75;10460876;28;20063;-54
2022/09/20 03:35:18;;;;;;;5.82;2.90;;;;;;;6.88;91.80;97765.91;10462062;28;20101;-55
2022/09/20 03:40:25;;;;;;;3.75;2.65;;;;;;;6.81;92.27;97770.97;10461667;28;20063;-54
2022/09/20 03:45:57;;;;;;;4.50;2.70;;;;;;;6.72;91.90;97786.31;10461041;28;20074;-54
2022/09/20 03:51:11;;;;;;;3.92;2.35;;;;;;;6.49;92.58;97791.13;10458430;28;20067;-54
2022/09/20 03:56:38;;;;;;;5.18;2.30;;;;;;;6.30;93.23;97796.81;10457790;28;20083;-54
2022/09/20 04:01:37;;;;;;;3.60;2.60;;;;;;;6.30;93.32;97807.13;10457552;28;20074;-54
2022/09/20 04:07:08;;;;;;;5.45;2.78;;;;;;;6.26;93.64;97810.47;10455892;28;20071;-54
2022/09/20 04:12:21;;;;;;;5.20;2.90;;;;;;;6.12;92.67;97798.25;10457747;28;20067;-53
2022/09/20 04:17:34;;;;;;;4.38;2.78;;;;;;;6.14;92.94;97811.16;10456946;28;20082;-54
2022/09/20 04:22:34;;;;;;;5.85;2.90;;;;;;;6.09;92.68;97823.09;10454946;28;20071;-54
2022/09/20 04:27:42;;;;;;;5.25;3.65;;;;;;;6.11;93.46;97827.41;10456421;28;20070;-54
2022/09/20 04:33:00;;;;;;;10.38;3.40;;;;;;;6.17;92.82;97830.13;10457089;28;20063;-54
2022/09/20 04:38:04;;;;;;;10.93;4.40;;;;;;;6.24;92.63;97835.38;10456613;28;20058;-53
2022/09/20 04:43:31;;;;;;;10.80;5.35;;;;;;;6.31;92.58;97829.50;10454011;28;20082;-53
2022/09/20 04:48:53;;;;;;;12.77;7.93;;;;;;;6.39;92.43;97839.06;10456495;28;20196;-53
2022/09/20 04:54:10;;;;;;;13.07;6.90;;;;;;;6.54;92.63;97842.78;10453601;28;20479;-54
2022/09/20 04:59:35;;;;;;;11.57;6.32;;;;;;;6.68;92.42;97848.13;10454639;28;20063;-54
2022/09/20 05:05:17;;;;;;;12.75;6.30;;;;;;;6.83;92.96;97849.22;10349820;28;20065;-54
2022/09/20 05:10:35;;;;;;;11.77;6.22;;;;;;;7.03;92.61;97839.22;10372987;28;20729;-54
2022/09/20 05:15:38;;;;;;;11.27;6.53;;;;;;;7.19;92.84;97822.25;10372041;28;20057;-54
2022/09/20 05:20:51;;;;;;;12.50;6.10;;;;;;;7.50;93.24;97843.31;10394058;28;20064;-54
2022/09/20 05:26:14;;;;;;;10.48;5.90;;;;;;;7.71;92.80;97834.97;10396514;28;20491;-54
2022/09/20 05:31:21;;;;;;;9.98;6.55;;;;;;;7.87;92.41;97838.56;10370264;28;20057;-54
2022/09/20 05:36:38;;;;;;;10.52;6.30;;;;;;;7.85;92.57;97832.56;10367872;28;20056;-54
2022/09/20 05:41:57;;;;;;;11.30;6.28;;;;;;;7.95;92.70;97842.13;10370725;28;20060;-54
2022/09/20 05:47:03;;;;;;;19.05;9.15;;;;;;;7.98;93.50;97836.13;10371805;28;20071;-53
2022/09/20 05:52:28;;;;;;;14.48;8.75;;;;;;;8.10;93.11;97833.66;10370971;28;20083;-54
2022/09/20 05:57:31;;;;;;;11.88;7.65;;;;;;;8.16;92.86;97853.53;10376204;28;20072;-54
2022/09/20 06:02:39;;;;;;;12.18;6.78;;;;;;;8.33;92.19;97841.63;10371857;28;20483;-54
2022/09/20 06:08:07;;;;;;;15.43;6.82;;;;;;;8.56;91.90;97848.75;10370012;28;20068;-54
2022/09/20 06:13:30;;;;;;;11.25;7.40;;;;;;;8.75;90.87;97839.41;10369862;28;20072;-54
2022/09/20 06:18:39;;;;;;;8.90;6.05;;;;;;;8.96;90.46;97839.53;10378175;28;20518;-55
2022/09/20 06:23:38;;;;;;;9.27;5.50;;;;;;;9.14;89.83;97844.00;10382057;28;20057;-54
2022/09/20 06:28:42;;;;;;;8.20;5.00;;;;;;;9.30;89.10;97839.78;10382413;28;20061;-54
2022/09/20 06:34:03;;;;;;;7.80;4.75;;;;;;;9.47;88.28;97839.88;10380764;28;20072;-54
2022/09/20 06:44:32;;;;;;;7.35;5.07;;;;;;;9.69;85.92;97841.69;10392490;28;20072;-54
2022/09/20 06:49:34;;;;;;;9.52;6.05;;;;;;;9.87;85.85;97832.25;10377631;28;20119;-54
2022/09/20 06:54:33;;;;;;;9.45;4.78;;;;;;;9.95;84.24;97833.13;10378130;28;20088;-54
2022/09/20 06:59:32;;;;;;;11.30;6.70;;;;;;;10.15;82.99;97847.03;10375493;28;20043;-54
2022/09/20 07:04:31;;;;;;;10.52;6.95;;;;;;;10.35;82.71;97836.66;10377280;28;20044;-54
2022/09/20 07:09:30;;;;;;;9.85;6.00;;;;;;;10.52;78.06;97835.81;10377665;28;20044;-53
2022/09/20 07:14:29;;;;;;;;;;;;;;;10.72;76.98;97852.25;10380078;28;20072;-54
2022/09/20 07:19:29;;;;;;;5.35;3.75;;;;;;;11.04;76.69;97852.28;10376218;28;19913;-55
2022/09/20 07:24:30;;;;;;;;;;;;;;;11.34;73.84;97849.59;10377502;28;20630;-55
2022/09/20 07:29:30;;;;;;;4.68;3.00;;;;;;;11.65;70.66;97850.41;10375494;28;19948;-54
2022/09/20 07:34:29;;;;;;;6.30;2.75;;;;;;;12.04;68.64;97845.88;10376035;28;20091;-54
2022/09/20 07:39:28;;;;;;;1.92;1.73;;;;;;;12.46;66.43;97841.28;10376381;28;20116;-55
2022/09/20 07:44:27;;;;;;;1.75;1.50;;;;;;;12.93;64.21;97850.50;10371436;28;20075;-55
2022/09/20 07:49:30;;;;;;;2.03;1.83;;;;;;;13.46;58.72;97838.66;10382386;28;20099;-55
2022/09/20 07:54:29;;;;;;;1.95;1.73;;;;;;;13.77;55.35;97836.59;10417030;28;20080;-55
2022/09/20 07:59:28;;;;;;;2.10;1.58;;;;;;;14.08;54.07;97824.91;10410318;28;20121;-55
2022/09/20 08:04:27;;;;;;;0.93;0.93;;;;;;;14.34;50.95;97827.97;10369353;28;20132;-55
2022/09/20 08:09:26;;;;;;;3.88;2.92;;;;;;;14.24;49.77;97826.41;10369876;28;20484;-55
2022/09/20 08:14:25;;;;;;;1.38;1.20;;;;;;;14.30;49.42;97831.50;10360061;28;20061;-55
2022/09/20 08:19:24;;;;;;;0.95;0.90;;;;;;;14.19;48.48;97828.19;10380561;28;20048;-55
2022/09/20 08:24:25;;;;;;;2.67;2.03;;;;;;;14.20;48.46;97811.66;10406486;28;20031;-55
2022/09/20 08:29:24;;;;;;;1.30;1.20;;;;;;;14.12;47.64;97822.19;10333652;28;20083;-55
2022/09/20 08:34:23;;;;;;;2.28;1.90;;;;;;;14.28;48.01;97811.53;10367545;28;20072;-55
2022/09/20 08:39:25;;;;;;;2.88;1.50;;;;;;;14.56;47.72;97806.75;10380143;28;20060;-55
2022/09/20 08:44:34;;;;;;;1.92;1.40;;;;;;;15.04;45.49;97806.84;10382789;28;20056;-55
2022/09/20 08:49:33;;;;;;;2.40;1.30;;;;;;;15.11;46.27;97800.63;10415201;28;20063;-55
2022/09/20 08:54:33;;;;;;;5.75;2.97;;;;;;;15.02;45.48;97785.97;10405494;28;20069;-55
2022/09/20 08:59:33;;;;;;;1.00;0.95;;;;;;;15.06;43.92;97781.56;10368861;28;20071;-55
2022/09/20 09:04:35;;;;;;;1.02;0.70;;;;;;;15.20;43.78;97782.16;10374964;28;20126;-55
2022/09/20 09:09:37;;;;;;;2.10;1.00;;;;;;;14.90;44.01;97782.72;10399156;28;20487;-55
2022/09/20 09:14:48;;;;;;;1.00;1.00;;;;;;;14.92;44.36;97778.31;10374792;28;20068;-55
2022/09/20 09:19:50;;;;;;;2.35;1.70;;;;;;;15.24;43.75;97762.03;10371473;28;20080;-55
2022/09/20 09:25:15;;;;;;;1.50;1.17;;;;;;;15.40;44.01;97770.44;10373553;28;20060;-55
2022/09/20 09:30:27;;;;;;;1.38;0.80;;;;;;;15.49;40.69;97767.63;10374118;28;20080;-55
2022/09/20 09:35:30;;;;;;;1.67;0.70;;;;;;;15.52;41.46;97757.09;10373518;28;20473;-55
2022/09/20 09:40:31;;;;;;;2.08;1.17;;;;;;;15.59;42.63;97753.47;10374077;28;20064;-55
2022/09/20 09:45:37;;;;;;;1.42;0.98;;;;;;;15.76;42.25;97744.38;10374765;28;20055;-55
2022/09/20 09:50:36;;;;;;;0.90;0.90;;;;;;;15.81;40.79;97748.69;10372425;28;20067;-55
2022/09/20 09:55:51;;;;;;;;;;;;;;;15.86;40.52;97738.09;10382409;28;20128;-55
2022/09/20 10:00:52;;;;;;;2.13;0.80;;;;;;;16.19;42.19;97733.00;10382303;28;19955;-55
2022/09/20 10:06:47;;;;;;;2.65;0.80;;;;;;;16.47;39.67;97715.69;10382086;28;20063;-55
2022/09/20 10:12:19;;;;;;;1.50;0.93;;;;;;;16.79;40.43;97719.22;10266314;28;20141;-55
2022/09/20 10:17:33;;;;;;;0.65;0.65;;;;;;;17.07;36.47;97716.75;10333587;28;20073;-56
2022/09/20 10:22:47;;;;;;;2.72;0.80;;;;;;;17.13;36.67;97715.72;10379684;28;20526;-56
2022/09/20 10:28:08;;;;;;;0.55;0.55;;;;;;;17.36;36.11;97707.22;10380064;28;20155;-55
2022/09/20 10:33:17;;;;;;;0.95;0.70;;;;;;;16.86;38.19;97714.72;10378628;28;20075;-56
2022/09/20 10:38:22;;;;;;;;;;;;;;;15.94;40.22;97712.59;10379393;28;20131;-55
2022/09/20 10:43:45;;;;;;;0.82;0.82;;;;;;;16.00;40.70;97722.09;10374604;28;20385;-55
2022/09/20 10:48:50;;;;;;;0.90;0.90;;;;;;;16.23;40.33;97711.94;10379216;28;20064;-55
2022/09/20 10:54:13;;;;;;;2.20;1.15;;;;;;;16.45;40.69;97711.41;10378776;28;20080;-55
2022/09/20 10:59:38;;;;;;;0.73;0.73;;;;;;;16.61;39.66;97717.09;10381737;28;20064;-55
2022/09/20 11:05:19;;;;;;;0.80;0.65;;;;;;;17.00;38.52;97702.09;10380190;28;20088;-55
2022/09/20 11:10:21;;;;;;;0.75;0.60;;;;;;;17.43;37.25;97693.00;10381162;28;20073;-55
2022/09/20 11:15:26;;;;;;;1.13;0.77;;;;;;;17.89;38.85;97681.13;10380927;28;20527;-55
2022/09/20 11:20:42;;;;;;;2.97;0.85;;;;;;;18.49;38.73;97666.03;10402123;28;20072;-56
2022/09/20 11:25:54;;;;;;;0.60;0.60;;;;;;;18.73;37.00;97674.00;10422004;28;20071;-56
2022/09/20 11:31:08;;;;;;;2.20;0.90;;;;;;;17.54;37.93;97676.94;10417646;28;20092;-56
2022/09/20 11:36:15;;;;;;;1.27;0.70;;;;;;;17.13;38.36;97673.78;10380205;28;20087;-56
2022/09/20 11:41:22;;;;;;;1.23;0.90;;;;;;;17.11;38.84;97673.81;10379436;28;20068;-55
2022/09/20 11:46:32;;;;;;;0.90;0.90;;;;;;;17.41;38.18;97668.59;10377941;28;20546;-56
2022/09/20 11:51:51;;;;;;;1.60;0.90;;;;;;;17.55;38.07;97665.56;10375974;28;20083;-56
2022/09/20 11:56:55;;;;;;;1.52;0.90;;;;;;;17.49;37.27;97660.47;10364553;28;20076;-56
2022/09/20 12:01:58;;;;;;;1.45;0.75;;;;;;;17.51;36.51;97656.91;10374738;28;20069;-56
2022/09/20 12:07:14;;;;;;;2.35;1.00;;;;;;;17.77;36.86;97661.38;10374901;28;20064;-56
2022/09/20 12:12:26;;;;;;;0.70;0.70;;;;;;;17.87;35.68;97661.97;10373812;28;20083;-56
2022/09/20 12:18:19;;;;;;;1.77;0.93;;;;;;;18.28;34.63;97656.25;10375075;28;20083;-56
2022/09/20 12:23:39;;;;;;;2.08;0.82;;;;;;;18.84;34.95;97645.56;10295916;28;20064;-56
2022/09/20 12:28:39;;;;;;;1.38;0.70;;;;;;;18.87;33.89;97641.97;10374454;28;20068;-56
2022/09/20 12:33:58;;;;;;;2.70;0.82;;;;;;;18.61;34.07;97626.19;10374394;28;20061;-56
2022/09/20 12:39:12;;;;;;;0.87;0.80;;;;;;;18.71;35.09;97633.78;10373640;28;20554;-56
2022/09/20 12:44:29;;;;;;;1.48;0.60;;;;;;;18.81;34.35;97641.28;10373796;28;20287;-56
2022/09/20 12:54:51;;;;;;;1.30;0.68;;;;;;;18.70;34.46;97621.56;10373649;28;20503;-56
2022/09/20 12:59:56;;;;;;;1.55;1.08;;;;;;;18.93;34.87;97634.72;10373686;28;20084;-56
2022/09/20 13:04:55;;;;;;;2.15;0.93;;;;;;;18.56;34.30;97636.00;10373776;28;20083;-56
2022/09/20 13:09:54;;;;;;;1.58;0.85;;;;;;;18.56;34.31;97614.97;10372590;28;20072;-56
2022/09/20 13:14:53;;;;;;;2.63;1.10;;;;;;;18.43;34.82;97618.94;10372298;28;20510;-56
2022/09/20 13:19:55;;;;;;;0.68;0.68;;;;;;;18.46;34.90;97618.84;10390265;28;20079;-56
2022/09/20 13:25:03;;;;;;;1.55;1.20;;;;;;;18.17;35.76;97622.47;10415898;28;20072;-56
2022/09/20 13:30:31;;;;;;;0.90;0.90;;;;;;;17.85;36.08;97629.66;10422604;28;20072;-56
2022/09/20 13:35:31;;;;;;;1.00;1.00;;;;;;;17.83;36.62;97631.47;10421209;28;20068;-56
2022/09/20 13:40:37;;;;;;;3.17;1.10;;;;;;;17.53;37.24;97630.63;10422096;28;20072;-56
2022/09/20 13:45:41;;;;;;;3.55;1.88;;;;;;;17.39;38.01;97633.66;10424222;28;20067;-56
2022/09/20 13:50:40;;;;;;;1.67;1.17;;;;;;;17.04;38.08;97632.09;10425833;28;20056;-56
2022/09/20 13:55:40;;;;;;;2.42;1.30;;;;;;;17.13;38.84;97637.91;10426837;28;20051;-56
2022/09/20 14:00:46;;;;;;;2.53;1.13;;;;;;;16.98;39.13;97633.13;10425554;28;20082;-56
2022/09/20 14:05:50;;;;;;;1.55;1.30;;;;;;;16.93;39.25;97630.66;10425304;28;20509;-56
2022/09/20 14:11:20;;;;;;;1.73;1.00;;;;;;;16.81;39.53;97641.44;10425606;28;20075;-56
2022/09/20 14:16:27;;;;;;;2.53;1.10;;;;;;;16.75;39.50;97630.25;10425465;28;20071;-56
2022/09/20 14:21:30;;;;;;;3.58;1.85;;;;;;;16.73;39.70;97632.94;10424319;28;20122;-56
2022/09/20 14:26:35;;;;;;;2.22;1.33;;;;;;;16.88;38.89;97627.28;10424829;28;20175;-56
2022/09/20 14:31:35;;;;;;;3.08;1.40;;;;;;;16.85;39.20;97637.84;10423441;28;20071;-56
2022/09/20 14:36:34;;;;;;;1.42;1.30;;;;;;;16.51;39.69;97633.53;10424868;28;20075;-56
2022/09/20 14:41:36;;;;;;;2.22;1.17;;;;;;;16.41;40.05;97626.78;10424611;28;20488;-56
2022/09/20 14:46:37;;;;;;;12.38;2.63;;;;;;;16.48;40.52;97632.72;10422983;28;20066;-57
2022/09/20 14:51:36;;;;;;;5.40;2.30;;;;;;;16.41;40.92;97629.41;10419726;28;20068;-56
2022/09/20 14:56:38;;;;;;;13.27;2.78;;;;;;;16.28;41.27;97639.34;10420041;28;20503;-56
2022/09/20 15:01:41;;;;;;;8.95;3.75;;;;;;;16.15;41.44;97637.94;10420098;28;20499;-56
2022/09/20 15:06:41;;;;;;;4.13;1.45;;;;;;;16.03;41.63;97641.72;10420906;28;20555;-56
2022/09/20 15:11:40;;;;;;;5.90;1.45;;;;;;;15.90;41.70;97650.75;10419798;28;20787;-56
2022/09/20 15:16:39;;;;;;;;;;;;;;;15.66;42.01;97647.78;10392565;28;20073;-56
2022/09/20 15:21:38;;;;;;;5.23;1.70;;;;;;;15.44;42.75;97652.66;10375453;28;19999;-56
2022/09/20 15:26:36;;;;;;;;;;;;;;;15.25;42.95;97646.13;10377076;28;20064;-56
2022/09/20 15:31:35;;;;;;;2.10;1.40;;;;;;;15.16;43.23;97657.63;10375454;28;19995;-56
2022/09/20 15:36:34;;;;;;;6.65;2.20;;;;;;;15.13;43.20;97657.69;10370875;28;20104;-56
2022/09/20 15:41:34;;;;;;;8.98;2.38;;;;;;;15.00;43.11;97656.22;10370897;28;20251;-56
2022/09/20 15:46:34;;;;;;;3.88;1.80;;;;;;;14.97;43.43;97666.75;10373103;28;20605;-56
2022/09/20 15:51:34;;;;;;;3.70;1.85;;;;;;;14.85;44.15;97661.75;10374912;28;20064;-56
2022/09/20 15:56:35;;;;;;;2.65;1.90;;;;;;;14.81;44.22;97664.41;10376095;28;20081;-56
2022/09/20 16:01:38;;;;;;;6.43;2.10;;;;;;;14.76;44.11;97658.44;10374482;28;20494;-56
2022/09/20 16:06:40;;;;;;;4.13;1.70;;;;;;;14.79;44.23;97666.19;10376296;28;20068;-56
2022/09/20 16:11:39;;;;;;;9.15;3.20;;;;;;;14.79;44.48;97673.19;10375335;28;20526;-56
2022/09/20 16:16:38;;;;;;;14.73;5.85;;;;;;;14.81;45.04;97667.03;10375210;28;20071;-56
2022/09/20 16:21:38;;;;;;;;;;;;;;;14.85;45.35;97672.19;10374727;28;20055;-56
2022/09/20 16:26:38;;;;;;;6.80;3.88;;;;;;;14.80;46.21;97678.38;10373370;28;19948;-56
2022/09/20 16:31:39;;;;;;;7.05;2.90;;;;;;;14.68;46.91;97689.00;10374777;28;20076;-56
2022/09/20 16:36:42;;;;;;;5.45;3.40;;;;;;;14.61;48.26;97690.88;10374234;28;20083;-56
2022/09/20 16:41:44;;;;;;;5.68;3.45;;;;;;;14.46;48.36;97695.53;10373481;28;20118;-56
2022/09/20 16:46:43;;;;;;;4.28;2.72;;;;;;;14.41;48.96;97704.28;10376319;28;20072;-56
2022/09/20 16:51:45;;;;;;;4.15;2.72;;;;;;;14.36;49.14;97700.91;10376504;28;20072;-57
2022/09/20 16:56:48;;;;;;;7.00;2.90;;;;;;;14.34;49.81;97705.28;10375450;28;20083;-56
2022/09/20 17:01:48;;;;;;;6.22;3.03;;;;;;;14.27;49.59;97711.50;10376294;28;20060;-56
2022/09/20 17:06:48;;;;;;;6.10;2.95;;;;;;;14.25;49.70;97715.88;10377286;28;20053;-56
2022/09/20 17:11:48;;;;;;;7.40;3.63;;;;;;;14.20;50.35;97710.72;10375320;28;20124;-56
2022/09/20 17:16:49;;;;;;;7.05;3.47;;;;;;;14.11;49.98;97704.81;10373137;28;20469;-55
2022/09/20 17:21:49;;;;;;;10.13;4.75;;;;;;;14.00;50.93;97718.00;10375588;28;20076;-56
2022/09/20 17:26:49;;;;;;;9.45;6.15;;;;;;;13.90;51.29;97727.72;10375700;28;20072;-56
2022/09/20 17:31:51;;;;;;;9.02;5.68;;;;;;;13.74;51.97;97727.06;10375540;28;20072;-55
2022/09/20 17:36:52;;;;;;;8.85;5.43;;;;;;;13.63;53.13;97728.97;10375235;28;20080;-56
2022/09/20 17:41:51;;;;;;;11.50;5.10;;;;;;;13.50;53.79;97733.47;10375831;28;20100;-56
2022/09/20 17:46:52;;;;;;;7.38;4.10;;;;;;;13.34;53.99;97740.59;10373796;28;20061;-56
2022/09/20 17:51:54;;;;;;;3.80;3.00;;;;;;;13.15;53.94;97737.34;10371693;28;20076;-56
2022/09/20 17:56:54;;;;;;;4.03;2.63;;;;;;;12.93;54.44;97733.28;10346261;28;20106;-56
2022/09/20 18:01:53;;;;;;;3.53;2.92;;;;;;;12.79;55.32;97753.38;10303541;28;20069;-56
2022/09/20 18:06:53;;;;;;;4.97;3.92;;;;;;;12.57;55.31;97750.13;10288665;28;20092;-56
2022/09/20 18:11:53;;;;;;;4.45;3.33;;;;;;;12.29;55.92;97751.22;10290228;28;20061;-56
2022/09/20 18:16:59;;;;;;;4.93;3.33;;;;;;;12.02;56.21;97754.00;10332067;28;20061;-56
2022/09/20 18:22:00;;;;;;;4.88;3.40;;;;;;;11.87;56.62;97763.59;10337083;28;20076;-56
2022/09/20 18:26:59;;;;;;;5.45;3.72;;;;;;;11.64;57.96;97758.56;10337766;28;20513;-56
2022/09/20 19:10:11;;;;;;;3.38;3.00;;;;;;;9.83;63.78;97800.28;10243654;27;20453;-62
2022/09/20 19:15:47;;;;;;;3.42;3.00;;;;;;;9.91;63.73;97802.88;10290767;28;20575;-62
2022/09/20 19:21:01;;;;;;;4.53;3.22;;;;;;;9.91;64.21;97798.56;10285517;28;20069;-62
2022/09/20 19:26:09;;;;;;;3.72;3.35;;;;;;;9.88;64.68;97802.88;10300312;28;20064;-63
2022/09/20 19:31:20;;;;;;;5.03;3.58;;;;;;;9.82;65.29;97805.47;10324692;28;20874;-63
2022/09/20 19:36:21;;;;;;;6.00;3.72;;;;;;;9.75;65.30;97807.19;10325068;28;20061;-63
2022/09/20 19:41:38;;;;;;;7.57;3.95;;;;;;;9.67;66.13;97806.25;10323153;28;20070;-63
2022/09/20 19:47:18;;;;;;;7.32;4.47;;;;;;;9.59;66.41;97811.44;10324374;28;20065;-63
2022/09/20 19:52:17;;;;;;;5.75;3.90;;;;;;;9.42;67.20;97806.19;10322597;28;20497;-62
2022/09/20 19:57:22;;;;;;;6.75;4.40;;;;;;;9.46;66.76;97820.00;10320863;28;20556;-63
2022/09/20 20:02:22;;;;;;;10.18;6.18;;;;;;;9.37;67.69;97826.00;10324041;28;20065;-62
2022/09/20 20:07:33;;;;;;;7.60;5.72;;;;;;;9.29;68.81;97827.69;10314969;28;20563;-63
2022/09/20 20:12:43;;;;;;;6.47;4.60;;;;;;;9.20;69.33;97828.47;10296817;28;20077;-63
2022/09/20 20:17:59;;;;;;;4.97;4.00;;;;;;;9.10;69.64;97830.16;10295942;28;20066;-63
2022/09/20 20:23:27;;;;;;;5.28;4.28;;;;;;;8.99;70.51;97828.34;10294862;28;20072;-64
2022/09/20 20:28:26;;;;;;;5.35;4.47;;;;;;;8.81;70.67;97823.91;10295994;28;20060;-64
2022/09/20 20:33:25;;;;;;;5.32;4.70;;;;;;;8.74;70.86;97838.53;10296138;28;20064;-64
2022/09/20 20:38:25;;;;;;;;;;;;;;;8.70;71.66;97835.06;10296488;28;20065;-64
2022/09/20 20:43:24;;;;;;;6.20;5.23;;;;;;;8.54;72.30;97827.16;10296107;28;20075;-64
2022/09/20 20:48:23;;;;;;;8.07;4.90;;;;;;;8.38;72.31;97803.75;10294339;28;20472;-64
2022/09/20 20:53:22;;;;;;;5.78;4.28;;;;;;;8.50;72.94;97840.09;10295946;28;20547;-62
2022/09/20 20:58:21;;;;;;;4.40;3.95;;;;;;;8.35;72.63;97832.19;10293232;28;20113;-62
2022/09/20 21:03:20;;;;;;;8.30;4.65;;;;;;;8.25;73.13;97827.78;10293562;28;20090;-62
2022/09/20 21:08:19;;;;;;;5.68;4.32;;;;;;;8.22;74.64;97848.41;10308772;28;20077;-62
2022/09/20 21:13:18;;;;;;;7.30;4.95;;;;;;;7.98;77.00;97843.88;10294300;28;20073;-62
2022/09/20 21:18:17;;;;;;;5.95;4.80;;;;;;;7.92;77.74;97849.84;10292558;28;20393;-62
2022/09/20 21:23:16;;;;;;;7.40;5.53;;;;;;;7.75;77.36;97841.03;10293804;28;20080;-63
2022/09/20 21:28:15;;;;;;;7.13;5.43;;;;;;;7.63;77.74;97852.06;10294352;28;20066;-64
2022/09/20 21:33:14;;;;;;;8.52;5.80;;;;;;;7.53;77.24;97833.03;10293930;28;20069;-64
2022/09/20 21:38:13;;;;;;;8.57;6.70;;;;;;;7.50;78.49;97839.84;10292124;28;20117;-64
2022/09/20 21:43:12;;;;;;;8.95;6.32;;;;;;;7.52;78.05;97839.06;10292105;28;20088;-64
2022/09/20 21:48:11;;;;;;;8.57;6.43;;;;;;;7.50;78.35;97838.16;10293201;28;20061;-64
2022/09/20 21:53:10;;;;;;;7.85;5.63;;;;;;;7.53;78.54;97856.25;10292752;28;20069;-64
2022/09/20 21:58:09;;;;;;;9.00;6.20;;;;;;;7.38;78.81;97831.09;10292988;28;20065;-64
2022/09/20 22:03:08;;;;;;;8.18;6.43;;;;;;;7.35;78.67;97835.34;10293237;28;20077;-64
2022/09/20 22:08:08;;;;;;;7.40;6.25;;;;;;;7.39;79.21;97852.59;10292724;28;20045;-64
2022/09/20 22:13:07;;;;;;;8.93;6.82;;;;;;;7.03;80.38;97803.09;10293103;28;20077;-64
2022/09/20 22:18:06;;;;;;;8.60;6.18;;;;;;;7.14;80.19;97817.84;10292402;28;20100;-64
2022/09/20 22:23:05;;;;;;;8.25;6.05;;;;;;;7.02;80.68;97815.97;10292687;28;20076;-64
2022/09/20 22:28:04;;;;;;;9.70;6.43;;;;;;;7.10;81.69;97853.09;10292627;28;20025;-64
2022/09/20 22:33:04;;;;;;;9.90;6.20;;;;;;;7.08;81.10;97844.44;10291955;28;20145;-63
2022/09/20 22:38:02;;;;;;;10.25;6.65;;;;;;;6.99;81.29;97841.75;10291839;28;20065;-63
2022/09/20 22:43:02;;;;;;;9.52;6.88;;;;;;;7.01;81.67;97852.94;10307426;28;20124;-64
2022/09/20 22:48:00;;;;;;;8.93;6.45;;;;;;;6.78;82.43;97837.13;10291639;28;20069;-64
2022/09/20 22:52:59;;;;;;;9.02;7.07;;;;;;;6.75;83.12;97852.53;10291849;28;20091;-64
2022/09/20 22:57:59;;;;;;;10.48;7.28;;;;;;;6.61;82.81;97840.31;10291433;28;20109;-64
2022/09/20 23:02:57;;;;;;;8.98;6.85;;;;;;;6.73;83.26;97854.25;10291273;28;20088;-64
2022/09/20 23:07:56;;;;;;;9.98;7.40;;;;;;;6.64;83.26;97833.47;10291152;28;20050;-64
2022/09/20 23:12:55;;;;;;;11.23;7.88;;;;;;;6.56;83.41;97841.94;10292227;28;20412;-64
2022/09/20 23:17:54;;;;;;;11.63;7.70;;;;;;;6.51;83.64;97851.28;10290948;28;20050;-64
2022/09/20 23:22:53;;;;;;;9.02;7.00;;;;;;;6.44;83.77;97851.19;10291175;28;20120;-64
2022/09/20 23:27:53;;;;;;;9.27;7.35;;;;;;;6.39;83.89;97845.94;10291388;28;20507;-64
2022/09/20 23:32:52;;;;;;;7.70;6.28;;;;;;;6.13;84.57;97835.19;10291050;28;20076;-64
2022/09/20 23:37:51;;;;;;;7.47;6.15;;;;;;;6.07;85.16;97847.94;10290635;28;20058;-64
2022/09/20 23:42:50;;;;;;;8.50;6.30;;;;;;;5.89;84.67;97815.88;10293735;28;20073;-64
2022/09/20 23:47:49;;;;;;;7.78;5.78;;;;;;;6.08;84.79;97852.28;10298203;28;20038;-64
2022/09/20 23:52:48;;;;;;;9.10;6.13;;;;;;;6.04;84.90;97856.50;10298261;28;20485;-63
2022/09/20 23:57:49;;;;;;;11.07;7.60;;;;;;;5.97;84.87;97846.91;10297051;28;20087;-64
